Time;durP1;ratioP1;P1;durP2;ratioP2;P2;SDS_P1;SDS_P2;PMS_P1;PMS_P2;Temp;Humidity;BMP_temperature;BMP_pressure;BME280_temperature;BME280_humidity;BME280_pressure;Samples;Min_cycle;Max_cycle;Signal;HPM_P1;HPM_P2
2021/11/22 00:01:19;;;;;;;15.65;8.85;;;3.70;99.90;;;;;;5067659;28;20268;-75
2021/11/22 00:03:45;;;;;;;12.45;7.72;;;3.50;99.90;;;;;;5067805;28;20176;-75
2021/11/22 00:06:11;;;;;;;13.43;8.43;;;3.30;99.90;;;;;;5069134;28;20168;-75
2021/11/22 00:08:37;;;;;;;13.32;8.65;;;3.30;99.90;;;;;;5067732;28;20208;-75
2021/11/22 00:11:03;;;;;;;9.50;6.70;;;3.20;99.90;;;;;;5067750;28;20576;-75
2021/11/22 00:13:29;;;;;;;9.05;6.28;;;3.30;99.90;;;;;;5068970;28;20157;-75
2021/11/22 00:15:55;;;;;;;14.68;8.10;;;3.30;99.90;;;;;;5068888;28;20157;-75
2021/11/22 00:18:21;;;;;;;10.63;7.82;;;3.30;99.90;;;;;;5067633;28;20180;-75
2021/11/22 00:20:47;;;;;;;14.00;8.57;;;3.30;99.90;;;;;;5068892;28;20215;-75
2021/11/22 00:23:14;;;;;;;12.27;8.20;;;3.20;99.90;;;;;;5068714;28;20153;-75
2021/11/22 00:25:40;;;;;;;12.55;7.97;;;3.20;99.90;;;;;;5068832;28;20172;-75
2021/11/22 00:28:05;;;;;;;11.93;7.80;;;3.20;99.90;;;;;;5067551;28;20192;-75
2021/11/22 00:30:31;;;;;;;11.60;6.95;;;3.20;99.90;;;;;;5065054;28;20193;-75
2021/11/22 00:33:00;;;;;;;14.60;7.93;;;3.30;99.90;;;;;;5060881;28;20188;-75
2021/11/22 00:35:32;;;;;;;14.13;7.32;;;3.40;99.90;;;;;;5059894;28;20192;-74
2021/11/22 00:38:06;;;;;;;13.60;7.65;;;3.40;99.90;;;;;;5063627;28;20181;-75
2021/11/22 00:40:34;;;;;;;13.95;8.38;;;3.30;99.90;;;;;;5048595;28;20161;-75
2021/11/22 00:43:02;;;;;;;14.70;8.35;;;3.30;99.90;;;;;;5047427;28;20166;-75
2021/11/22 00:45:29;;;;;;;13.35;8.40;;;3.30;99.90;;;;;;5047134;28;20212;-74
2021/11/22 00:47:57;;;;;;;16.45;8.63;;;3.30;99.90;;;;;;5048461;28;20272;-75
2021/11/22 00:50:23;;;;;;;17.20;7.97;;;3.30;99.90;;;;;;5047257;28;20200;-75
2021/11/22 00:52:49;;;;;;;13.23;7.57;;;3.30;99.90;;;;;;5047279;28;20161;-75
2021/11/22 00:55:15;;;;;;;14.73;8.02;;;3.30;99.90;;;;;;5048498;28;20272;-75
2021/11/22 00:57:41;;;;;;;13.48;8.23;;;3.30;99.90;;;;;;5051519;28;20296;-75
2021/11/22 01:00:10;;;;;;;16.40;8.75;;;3.40;99.90;;;;;;5054458;28;20181;-75
2021/11/22 01:02:36;;;;;;;15.82;8.77;;;3.50;99.90;;;;;;5052231;28;20170;-75
2021/11/22 01:05:04;;;;;;;17.15;9.85;;;3.40;99.90;;;;;;5050558;28;20204;-75
2021/11/22 01:07:30;;;;;;;15.18;8.55;;;3.40;99.90;;;;;;5064652;28;20681;-75
2021/11/22 01:09:57;;;;;;;15.85;9.05;;;3.50;99.90;;;;;;5070605;28;20352;-75
2021/11/22 01:12:27;;;;;;;15.93;9.85;;;3.40;99.90;;;;;;5071910;28;20175;-75
2021/11/22 01:15:00;;;;;;;21.67;10.05;;;3.40;99.90;;;;;;5071771;28;20187;-74
2021/11/22 01:17:27;;;;;;;14.52;9.30;;;3.50;99.90;;;;;;5067115;28;20181;-75
2021/11/22 01:19:53;;;;;;;18.10;10.20;;;3.50;99.90;;;;;;5050499;28;20916;-75
2021/11/22 01:22:21;;;;;;;15.23;8.40;;;3.50;99.90;;;;;;5050456;28;20172;-75
2021/11/22 01:24:48;;;;;;;17.95;9.40;;;3.50;99.90;;;;;;5051632;28;20677;-75
2021/11/22 01:27:14;;;;;;;20.15;9.00;;;3.50;99.90;;;;;;5050240;28;20237;-75
2021/11/22 01:29:40;;;;;;;18.92;8.10;;;3.50;99.90;;;;;;5050342;28;20196;-74
2021/11/22 01:32:06;;;;;;;21.95;9.88;;;3.60;99.90;;;;;;5051555;28;20154;-75
2021/11/22 01:34:32;;;;;;;20.08;9.57;;;3.50;99.90;;;;;;5050145;28;20197;-75
2021/11/22 01:36:58;;;;;;;17.98;9.68;;;3.60;99.90;;;;;;5051799;28;20165;-76
2021/11/22 01:39:24;;;;;;;24.83;10.32;;;3.50;99.90;;;;;;5050718;28;20171;-75
2021/11/22 01:41:50;;;;;;;21.45;9.75;;;3.60;99.90;;;;;;5050700;28;20243;-75
2021/11/22 01:44:16;;;;;;;23.55;10.02;;;3.50;99.90;;;;;;5050805;28;20192;-75
2021/11/22 01:46:46;;;;;;;23.05;11.60;;;3.50;99.90;;;;;;5051920;28;20165;-75
2021/11/22 01:49:13;;;;;;;30.30;9.80;;;3.50;99.90;;;;;;5050659;28;20193;-75
2021/11/22 01:51:39;;;;;;;29.48;9.80;;;3.50;99.90;;;;;;5050274;28;20168;-75
2021/11/22 01:54:05;;;;;;;20.80;9.98;;;3.50;99.90;;;;;;5051275;28;20215;-75
2021/11/22 01:56:31;;;;;;;21.05;10.38;;;3.50;99.90;;;;;;5049718;28;20239;-76
2021/11/22 01:58:56;;;;;;;18.73;9.20;;;3.50;99.90;;;;;;5051130;28;20177;-76
2021/11/22 02:01:22;;;;;;;26.63;9.30;;;3.50;99.90;;;;;;5051175;28;20200;-76
2021/11/22 02:03:49;;;;;;;25.65;10.32;;;3.60;99.90;;;;;;5051098;28;20155;-75
2021/11/22 02:06:15;;;;;;;20.13;9.52;;;3.60;99.90;;;;;;5049700;28;20198;-76
2021/11/22 02:08:41;;;;;;;19.55;9.05;;;3.60;99.90;;;;;;5050830;28;20192;-76
2021/11/22 02:11:09;;;;;;;27.95;10.95;;;3.70;99.90;;;;;;5050987;28;20168;-76
2021/11/22 02:13:36;;;;;;;25.20;9.05;;;3.80;99.90;;;;;;5049686;28;20169;-75
2021/11/22 02:16:02;;;;;;;26.17;11.23;;;3.80;99.90;;;;;;5049515;28;20197;-76
2021/11/22 02:18:28;;;;;;;31.30;10.27;;;3.90;99.90;;;;;;5050930;28;20161;-75
2021/11/22 02:20:54;;;;;;;25.48;9.85;;;3.80;99.90;;;;;;5049600;28;20296;-75
2021/11/22 02:23:21;;;;;;;24.75;9.88;;;3.80;99.90;;;;;;5067090;28;20612;-75
2021/11/22 02:25:46;;;;;;;22.10;11.10;;;3.70;99.90;;;;;;5070666;28;20173;-75
2021/11/22 02:28:14;;;;;;;20.88;9.93;;;3.70;99.90;;;;;;5069313;28;20581;-76
2021/11/22 02:30:43;;;;;;;21.10;9.85;;;3.60;99.90;;;;;;5068907;28;20222;-76
2021/11/22 02:33:13;;;;;;;25.85;10.55;;;3.60;99.90;;;;;;5069316;28;20192;-76
2021/11/22 02:35:43;;;;;;;27.83;10.75;;;3.60;99.90;;;;;;5070638;28;20164;-76
2021/11/22 02:38:09;;;;;;;26.92;10.13;;;3.70;99.90;;;;;;5070531;28;20156;-76
2021/11/22 02:40:36;;;;;;;21.73;9.45;;;3.80;99.90;;;;;;5070487;28;20161;-76
2021/11/22 02:43:02;;;;;;;26.08;10.55;;;3.80;99.90;;;;;;5070314;28;20188;-76
2021/11/22 02:45:28;;;;;;;25.10;10.68;;;3.90;99.90;;;;;;5070262;28;20263;-76
2021/11/22 02:47:54;;;;;;;24.77;10.45;;;3.90;99.90;;;;;;5070252;28;20275;-76
2021/11/22 02:50:21;;;;;;;20.10;9.10;;;3.80;99.90;;;;;;5070216;28;20187;-75
2021/11/22 02:52:49;;;;;;;25.35;10.32;;;3.90;99.90;;;;;;5068808;28;20272;-76
2021/11/22 02:55:17;;;;;;;24.67;9.75;;;3.90;99.90;;;;;;5070142;28;20221;-76
2021/11/22 02:57:44;;;;;;;21.08;11.15;;;3.80;99.90;;;;;;5069920;28;20224;-76
2021/11/22 03:00:36;;;;;;;27.42;10.50;;;3.70;99.90;;;;;;5069881;28;20173;-77
2021/11/22 03:03:03;;;;;;;20.75;8.73;;;3.80;99.90;;;;;;5069893;28;20207;-76
2021/11/22 03:05:29;;;;;;;21.50;10.82;;;3.90;99.90;;;;;;5069914;28;20184;-76
2021/11/22 03:07:58;;;;;;;17.48;10.73;;;3.80;99.90;;;;;;5069875;28;20711;-76
2021/11/22 03:10:28;;;;;;;22.42;9.48;;;3.80;99.90;;;;;;5069774;28;20152;-76
2021/11/22 03:12:57;;;;;;;22.40;10.57;;;3.80;99.90;;;;;;5069736;28;20192;-75
2021/11/22 03:15:23;;;;;;;20.13;8.38;;;3.80;99.90;;;;;;5069735;28;20517;-75
2021/11/22 03:17:49;;;;;;;17.10;9.07;;;3.70;99.90;;;;;;5069694;28;20148;-75
2021/11/22 03:20:19;;;;;;;17.38;9.65;;;3.70;99.90;;;;;;5069170;28;20161;-74
2021/11/22 03:22:46;;;;;;;22.58;8.55;;;3.70;99.90;;;;;;5068310;28;20201;-75
2021/11/22 03:25:13;;;;;;;22.27;9.70;;;3.70;99.90;;;;;;5069612;28;20218;-75
2021/11/22 03:27:41;;;;;;;17.90;9.48;;;3.70;99.90;;;;;;5069731;28;20207;-76
2021/11/22 03:30:09;;;;;;;19.52;9.57;;;3.70;99.90;;;;;;5068799;28;20202;-75
2021/11/22 03:32:35;;;;;;;22.17;8.93;;;3.70;99.90;;;;;;5069934;28;20199;-75
2021/11/22 03:35:02;;;;;;;18.15;8.57;;;3.70;99.90;;;;;;5069679;28;20157;-75
2021/11/22 03:37:28;;;;;;;15.93;8.32;;;3.70;99.90;;;;;;5069359;28;20175;-75
2021/11/22 03:39:56;;;;;;;17.23;9.43;;;3.80;99.90;;;;;;5069276;28;20168;-75
2021/11/22 03:42:22;;;;;;;25.80;10.20;;;3.80;99.90;;;;;;5068028;28;20224;-75
2021/11/22 03:44:49;;;;;;;17.77;8.60;;;3.90;99.90;;;;;;5069305;28;20195;-75
2021/11/22 03:47:16;;;;;;;18.95;8.55;;;3.90;99.90;;;;;;5067885;28;20176;-75
2021/11/22 03:49:42;;;;;;;20.55;9.15;;;3.90;99.90;;;;;;5067740;28;20188;-75
2021/11/22 03:52:09;;;;;;;20.13;8.93;;;4.00;99.90;;;;;;5069043;28;20196;-75
2021/11/22 03:54:37;;;;;;;19.58;8.57;;;4.00;99.90;;;;;;5069222;28;20173;-75
2021/11/22 03:57:03;;;;;;;18.92;8.20;;;4.00;99.90;;;;;;5068774;28;20258;-75
2021/11/22 03:59:30;;;;;;;19.55;9.20;;;4.00;99.90;;;;;;5067537;28;20164;-74
2021/11/22 04:01:56;;;;;;;16.20;7.95;;;4.00;99.90;;;;;;5068939;28;20279;-75
2021/11/22 04:04:22;;;;;;;24.90;11.15;;;4.00;99.90;;;;;;5069052;28;20163;-75
2021/11/22 04:06:48;;;;;;;24.05;10.65;;;3.90;99.90;;;;;;5068942;28;20207;-74
2021/11/22 04:09:14;;;;;;;21.63;9.90;;;3.90;99.90;;;;;;5068686;28;20594;-75
2021/11/22 04:11:40;;;;;;;22.02;9.45;;;3.90;99.90;;;;;;5069051;28;20196;-75
2021/11/22 04:14:06;;;;;;;19.02;8.85;;;3.90;99.90;;;;;;5068867;28;20602;-75
2021/11/22 04:16:33;;;;;;;24.48;11.63;;;3.90;99.90;;;;;;5068846;28;20149;-75
2021/11/22 04:18:59;;;;;;;19.15;8.68;;;3.90;99.90;;;;;;5068752;28;20183;-76
2021/11/22 04:21:26;;;;;;;20.08;9.88;;;3.80;99.90;;;;;;5068667;28;20648;-74
2021/11/22 04:23:54;;;;;;;18.55;9.60;;;3.90;99.90;;;;;;5068815;28;20160;-75
2021/11/22 04:26:20;;;;;;;20.15;9.73;;;3.90;99.90;;;;;;5068902;28;20158;-75
2021/11/22 04:28:47;;;;;;;20.95;9.98;;;3.90;99.90;;;;;;5066789;28;20211;-75
2021/11/22 04:31:14;;;;;;;25.13;9.95;;;4.00;99.90;;;;;;5069817;28;20157;-74
2021/11/22 04:33:41;;;;;;;18.50;9.02;;;4.00;99.90;;;;;;5072710;28;20155;-74
2021/11/22 04:36:08;;;;;;;21.58;8.07;;;3.90;99.90;;;;;;5072659;28;20172;-75
2021/11/22 04:38:36;;;;;;;19.75;10.55;;;3.90;99.90;;;;;;5072537;28;20200;-75
2021/11/22 04:41:02;;;;;;;28.25;9.73;;;3.90;99.90;;;;;;5072540;28;20183;-76
2021/11/22 04:43:28;;;;;;;20.55;9.55;;;3.90;99.90;;;;;;5072125;28;20689;-75
2021/11/22 04:45:54;;;;;;;23.45;10.18;;;3.80;99.90;;;;;;5072571;28;20159;-76
2021/11/22 04:48:20;;;;;;;25.52;9.55;;;3.80;99.90;;;;;;5072426;28;20191;-75
2021/11/22 04:50:47;;;;;;;25.95;10.02;;;3.80;99.90;;;;;;5072325;28;20189;-75
2021/11/22 04:53:13;;;;;;;22.98;10.23;;;3.80;99.90;;;;;;5072090;28;20200;-76
2021/11/22 04:55:39;;;;;;;21.17;10.15;;;3.90;99.90;;;;;;5071102;28;20169;-74
2021/11/22 04:58:08;;;;;;;22.17;9.60;;;3.80;99.90;;;;;;5072229;28;20224;-75
2021/11/22 05:00:35;;;;;;;20.00;10.25;;;3.70;99.90;;;;;;5072094;28;20176;-75
2021/11/22 05:03:04;;;;;;;24.15;9.85;;;3.80;99.90;;;;;;5072396;28;20259;-75
2021/11/22 05:05:31;;;;;;;29.20;11.07;;;3.80;99.90;;;;;;5072237;28;20184;-75
2021/11/22 05:07:56;;;;;;;23.95;10.48;;;3.80;99.90;;;;;;5070917;28;20204;-74
2021/11/22 05:10:28;;;;;;;25.48;11.55;;;3.90;99.90;;;;;;5070625;28;20169;-75
2021/11/22 05:12:54;;;;;;;29.65;11.60;;;3.80;99.90;;;;;;5071780;28;20192;-75
2021/11/22 05:15:20;;;;;;;24.48;11.57;;;3.90;99.90;;;;;;5071561;28;20175;-76
2021/11/22 05:17:46;;;;;;;18.95;10.07;;;3.90;99.90;;;;;;5070477;28;20281;-74
2021/11/22 05:20:12;;;;;;;26.48;9.48;;;3.90;99.90;;;;;;5071840;28;20157;-75
2021/11/22 05:22:38;;;;;;;24.85;11.02;;;3.90;99.90;;;;;;5071439;28;20192;-75
2021/11/22 05:25:05;;;;;;;40.03;12.80;;;3.90;99.90;;;;;;5071459;28;20169;-75
2021/11/22 05:27:31;;;;;;;29.75;12.98;;;3.90;99.90;;;;;;5070015;28;20196;-75
2021/11/22 05:29:58;;;;;;;28.67;11.15;;;3.90;99.90;;;;;;5071547;28;20161;-75
2021/11/22 05:32:24;;;;;;;32.60;12.10;;;3.90;99.90;;;;;;5071393;28;20200;-75
2021/11/22 05:34:54;;;;;;;25.02;10.65;;;3.90;99.90;;;;;;5071508;28;20215;-75
2021/11/22 05:37:21;;;;;;;30.55;13.40;;;3.90;99.90;;;;;;5070303;28;20172;-75
2021/11/22 05:39:47;;;;;;;42.15;12.55;;;4.00;99.90;;;;;;5071339;28;20161;-75
2021/11/22 05:42:17;;;;;;;25.70;12.18;;;4.00;99.90;;;;;;5068971;28;20565;-75
2021/11/22 05:44:44;;;;;;;26.23;11.52;;;4.00;99.90;;;;;;5069986;28;20180;-76
2021/11/22 05:47:12;;;;;;;27.08;11.05;;;4.00;99.90;;;;;;5068833;28;20180;-76
2021/11/22 05:49:38;;;;;;;28.70;11.20;;;4.00;99.90;;;;;;5070794;28;20149;-76
2021/11/22 05:52:07;;;;;;;25.13;11.18;;;4.00;99.90;;;;;;5071008;28;20565;-75
2021/11/22 05:54:37;;;;;;;28.08;10.82;;;4.00;99.90;;;;;;5069644;28;20527;-76
2021/11/22 05:57:03;;;;;;;31.38;12.52;;;4.00;99.90;;;;;;5069488;28;20233;-75
2021/11/22 05:59:29;;;;;;;25.23;10.43;;;4.10;99.90;;;;;;5070875;28;20216;-75
2021/11/22 06:01:55;;;;;;;26.55;12.18;;;4.10;99.90;;;;;;5070876;28;20193;-75
2021/11/22 06:04:22;;;;;;;24.23;10.35;;;4.00;99.90;;;;;;5069346;28;20232;-75
2021/11/22 06:06:48;;;;;;;24.13;10.02;;;4.00;99.90;;;;;;5070793;28;20153;-75
2021/11/22 06:09:14;;;;;;;25.88;10.70;;;4.00;99.90;;;;;;5070561;28;20189;-76
2021/11/22 06:11:40;;;;;;;23.33;10.07;;;4.00;99.90;;;;;;5070653;28;20187;-76
2021/11/22 06:14:05;;;;;;;24.80;11.15;;;4.00;99.90;;;;;;5070687;28;20176;-76
2021/11/22 06:16:32;;;;;;;21.95;10.95;;;4.10;99.90;;;;;;5068979;28;20175;-75
2021/11/22 06:18:58;;;;;;;30.42;12.65;;;4.10;99.90;;;;;;5070460;28;20517;-75
2021/11/22 06:21:24;;;;;;;26.00;11.18;;;4.20;99.90;;;;;;5070480;28;20161;-75
2021/11/22 06:23:50;;;;;;;27.75;10.65;;;4.20;99.90;;;;;;5069193;28;20268;-76
2021/11/22 06:26:16;;;;;;;27.77;10.20;;;4.30;99.90;;;;;;5070394;28;20594;-76
2021/11/22 06:28:42;;;;;;;31.38;11.23;;;4.20;99.90;;;;;;5069000;28;20197;-75
2021/11/22 06:31:08;;;;;;;28.15;12.20;;;4.20;99.90;;;;;;5069151;28;20180;-75
2021/11/22 06:33:34;;;;;;;27.42;12.27;;;4.10;99.90;;;;;;5068889;28;20195;-76
2021/11/22 06:36:00;;;;;;;22.08;11.13;;;4.20;99.90;;;;;;5070457;28;20149;-76
2021/11/22 06:38:26;;;;;;;23.05;9.48;;;4.30;99.90;;;;;;5068664;28;20173;-75
2021/11/22 06:40:53;;;;;;;26.48;10.77;;;4.30;99.90;;;;;;5070408;28;20153;-76
2021/11/22 06:43:19;;;;;;;20.63;10.43;;;4.40;99.90;;;;;;5070045;28;20208;-76
2021/11/22 06:45:45;;;;;;;24.33;10.55;;;4.30;99.90;;;;;;5068447;28;20639;-76
2021/11/22 06:48:11;;;;;;;19.80;9.40;;;4.30;99.90;;;;;;5068584;28;20231;-76
2021/11/22 06:50:37;;;;;;;20.95;9.43;;;4.30;99.90;;;;;;5069696;28;20264;-76
2021/11/22 06:53:03;;;;;;;20.88;9.10;;;4.30;99.90;;;;;;5069629;28;20191;-76
2021/11/22 06:55:30;;;;;;;25.63;9.63;;;4.30;99.90;;;;;;5069308;28;20638;-76
2021/11/22 06:57:56;;;;;;;27.35;10.93;;;4.40;99.90;;;;;;5068013;28;20228;-76
2021/11/22 07:00:22;;;;;;;27.67;11.60;;;4.50;99.90;;;;;;5069764;28;20168;-78
2021/11/22 07:02:51;;;;;;;21.98;9.55;;;4.70;99.90;;;;;;5068293;28;20203;-76
2021/11/22 07:05:22;;;;;;;23.27;10.32;;;4.80;99.90;;;;;;5069777;28;20163;-76
2021/11/22 07:07:49;;;;;;;29.15;11.95;;;4.90;99.90;;;;;;5070063;28;20188;-76
2021/11/22 07:10:16;;;;;;;23.40;11.60;;;4.80;99.90;;;;;;5069503;28;20166;-77
2021/11/22 07:12:42;;;;;;;25.83;11.13;;;4.90;99.90;;;;;;5069439;28;20184;-77
2021/11/22 07:15:09;;;;;;;25.65;10.85;;;4.90;99.90;;;;;;5069542;28;20187;-78
2021/11/22 07:17:35;;;;;;;23.15;10.15;;;4.90;99.90;;;;;;5068224;28;20179;-78
2021/11/22 07:20:02;;;;;;;21.85;10.82;;;5.00;99.90;;;;;;5069548;28;20191;-78
2021/11/22 07:22:27;;;;;;;24.42;10.55;;;5.00;99.90;;;;;;5067950;28;20207;-77
2021/11/22 07:24:53;;;;;;;23.65;10.55;;;5.00;99.90;;;;;;5069305;28;20165;-77
2021/11/22 07:27:25;;;;;;;27.27;11.25;;;5.00;99.90;;;;;;5067892;28;20247;-77
2021/11/22 07:29:51;;;;;;;21.60;9.43;;;5.00;99.90;;;;;;5067964;28;20196;-78
2021/11/22 07:32:18;;;;;;;17.13;9.98;;;5.00;99.90;;;;;;5067380;28;20268;-77
2021/11/22 07:34:44;;;;;;;23.45;11.27;;;5.00;99.90;;;;;;5067860;28;20179;-77
2021/11/22 07:37:10;;;;;;;24.73;11.35;;;5.00;99.90;;;;;;5069155;28;20149;-78
2021/11/22 07:39:36;;;;;;;19.38;10.45;;;4.90;99.90;;;;;;5067947;28;20180;-77
2021/11/22 07:42:02;;;;;;;20.50;10.25;;;5.00;99.90;;;;;;5069045;28;20184;-77
2021/11/22 07:44:28;;;;;;;18.58;8.93;;;5.00;99.90;;;;;;5068780;28;20152;-77
2021/11/22 07:46:57;;;;;;;24.33;9.63;;;4.90;99.90;;;;;;5068638;28;20215;-77
2021/11/22 07:49:24;;;;;;;24.42;9.95;;;5.00;99.90;;;;;;5068926;28;20200;-77
2021/11/22 07:51:50;;;;;;;24.48;10.77;;;5.10;99.90;;;;;;5067620;28;20223;-77
2021/11/22 07:54:16;;;;;;;15.57;9.05;;;5.10;99.90;;;;;;5068896;28;20180;-77
2021/11/22 07:56:43;;;;;;;16.23;8.13;;;5.10;99.90;;;;;;5067337;28;20232;-77
2021/11/22 07:59:10;;;;;;;20.20;8.90;;;5.10;99.90;;;;;;5068820;28;20164;-79
2021/11/22 08:01:36;;;;;;;19.77;9.40;;;5.20;99.90;;;;;;5066829;28;20420;-79
2021/11/22 08:04:02;;;;;;;10.25;5.50;;;5.20;99.90;;;;;;5067217;28;20216;-77
2021/11/22 08:06:28;;;;;;;27.63;8.30;;;5.40;99.90;;;;;;5071986;28;20675;-78
2021/11/22 08:08:54;;;;;;;26.90;10.45;;;5.60;99.90;;;;;;5072717;28;20227;-77
2021/11/22 08:13:51;;;;;;;24.58;9.60;;;5.70;99.90;;;;;;5072661;28;20192;-77
2021/11/22 08:16:17;;;;;;;19.38;9.00;;;5.60;99.90;;;;;;5072590;28;20172;-78
2021/11/22 08:18:44;;;;;;;18.35;9.10;;;5.50;99.90;;;;;;5071615;28;20244;-77
2021/11/22 08:21:11;;;;;;;17.13;9.57;;;5.70;99.90;;;;;;5071460;28;20176;-77
2021/11/22 08:23:38;;;;;;;20.58;8.85;;;5.60;99.90;;;;;;5072405;28;20281;-77
2021/11/22 08:26:04;;;;;;;27.23;10.70;;;5.70;99.90;;;;;;5071588;28;20660;-76
2021/11/22 08:28:30;;;;;;;24.38;9.93;;;5.80;99.90;;;;;;5071262;28;20200;-77
2021/11/22 08:30:57;;;;;;;26.77;10.73;;;5.70;99.90;;;;;;5072564;28;20184;-76
2021/11/22 08:33:23;;;;;;;24.65;10.00;;;5.70;99.90;;;;;;5072601;28;20711;-77
2021/11/22 08:35:50;;;;;;;18.70;10.40;;;5.60;99.90;;;;;;5071213;28;20176;-77
2021/11/22 08:38:17;;;;;;;24.33;10.43;;;5.70;99.90;;;;;;5072569;28;20160;-78
2021/11/22 08:40:45;;;;;;;22.25;9.50;;;5.60;99.90;;;;;;5072539;28;20183;-77
2021/11/22 08:43:16;;;;;;;25.65;9.52;;;5.70;99.90;;;;;;5072270;28;20192;-77
2021/11/22 08:45:47;;;;;;;21.50;9.27;;;5.70;99.90;;;;;;5071044;28;20659;-77
2021/11/22 08:48:15;;;;;;;23.10;9.50;;;5.80;99.90;;;;;;5066020;28;20210;-78
2021/11/22 08:50:41;;;;;;;20.42;9.65;;;6.00;99.90;;;;;;5059691;28;20181;-77
2021/11/22 08:53:06;;;;;;;19.88;10.13;;;6.20;99.90;;;;;;5064028;28;20197;-77
2021/11/22 08:55:32;;;;;;;20.10;9.88;;;6.40;99.90;;;;;;5070896;28;20186;-78
2021/11/22 08:57:59;;;;;;;20.30;10.13;;;6.40;99.90;;;;;;5054932;28;20213;-77
2021/11/22 09:00:27;;;;;;;20.02;10.63;;;6.40;99.90;;;;;;5065136;28;20235;-77
2021/11/22 09:02:55;;;;;;;24.83;10.65;;;6.40;99.90;;;;;;5071602;28;20199;-77
2021/11/22 09:05:21;;;;;;;18.45;9.30;;;6.70;99.90;;;;;;5061774;28;20181;-76
2021/11/22 09:07:47;;;;;;;19.55;9.85;;;6.90;99.90;;;;;;5059044;28;20228;-76
2021/11/22 09:10:13;;;;;;;22.90;9.18;;;6.80;99.90;;;;;;5064493;28;20168;-76
2021/11/22 09:12:39;;;;;;;18.48;9.57;;;6.60;99.90;;;;;;5071517;28;20203;-76
2021/11/22 09:15:06;;;;;;;19.55;10.55;;;6.70;99.90;;;;;;5050474;28;20173;-76
2021/11/22 09:17:32;;;;;;;23.65;11.45;;;6.50;99.90;;;;;;5050593;28;20185;-76
2021/11/22 09:19:57;;;;;;;22.65;10.23;;;6.70;99.90;;;;;;5051364;28;20622;-77
2021/11/22 09:22:24;;;;;;;18.60;9.38;;;6.70;99.90;;;;;;5057891;28;20193;-77
2021/11/22 09:24:49;;;;;;;21.15;10.50;;;6.80;99.90;;;;;;5071057;28;20153;-77
2021/11/22 09:27:15;;;;;;;21.52;10.63;;;6.80;99.90;;;;;;5050783;28;20173;-76
2021/11/22 09:29:41;;;;;;;14.40;8.30;;;6.70;99.90;;;;;;5049848;28;20176;-76
2021/11/22 09:32:08;;;;;;;20.73;9.65;;;6.80;99.90;;;;;;5051076;28;20220;-75
2021/11/22 09:34:34;;;;;;;23.50;10.23;;;7.00;99.90;;;;;;5051075;28;20157;-75
2021/11/22 09:37:00;;;;;;;19.77;10.15;;;7.00;99.90;;;;;;5050861;28;20182;-77
2021/11/22 09:39:27;;;;;;;25.67;10.15;;;7.00;99.90;;;;;;5051481;28;20169;-75
2021/11/22 09:41:53;;;;;;;15.23;9.45;;;7.00;99.90;;;;;;5049807;28;20195;-75
2021/11/22 09:44:21;;;;;;;21.83;9.30;;;6.90;99.90;;;;;;5050996;28;20169;-76
2021/11/22 09:46:48;;;;;;;20.35;10.98;;;6.70;99.90;;;;;;5050571;28;20153;-76
2021/11/22 09:49:14;;;;;;;21.60;10.93;;;6.70;99.90;;;;;;5050395;28;20200;-76
2021/11/22 09:51:40;;;;;;;22.20;10.35;;;6.60;99.90;;;;;;5050449;28;20154;-77
2021/11/22 09:54:07;;;;;;;21.27;10.50;;;6.30;99.90;;;;;;5049023;28;20539;-79
2021/11/22 09:56:34;;;;;;;23.88;11.15;;;6.40;99.90;;;;;;5056288;28;20235;-77
2021/11/22 09:59:01;;;;;;;22.00;10.63;;;6.50;99.90;;;;;;5070941;28;20247;-77
2021/11/22 10:01:32;;;;;;;24.88;12.13;;;6.40;99.90;;;;;;5059411;28;20236;-76
2021/11/22 10:04:09;;;;;;;20.67;10.00;;;6.10;99.90;;;;;;5069038;28;20207;-75
2021/11/22 10:06:53;;;;;;;21.25;10.20;;;6.10;99.90;;;;;;5068519;28;20191;-76
2021/11/22 10:09:34;;;;;;;18.15;9.98;;;6.20;99.90;;;;;;5052701;28;20221;-74
2021/11/22 10:12:29;;;;;;;23.65;10.55;;;6.40;99.90;;;;;;5049257;28;20161;-74
2021/11/22 10:14:57;;;;;;;24.42;10.52;;;6.30;99.90;;;;;;5060557;28;20188;-74
2021/11/22 10:17:26;;;;;;;21.33;10.52;;;6.10;99.90;;;;;;5068852;28;20172;-75
2021/11/22 10:20:10;;;;;;;24.98;11.48;;;6.10;99.90;;;;;;5067652;28;20197;-75
2021/11/22 10:22:54;;;;;;;23.38;10.73;;;6.10;99.90;;;;;;5070209;28;20163;-75
2021/11/22 10:25:23;;;;;;;25.10;12.20;;;6.20;99.90;;;;;;5065290;28;20168;-75
2021/11/22 10:27:50;;;;;;;20.13;10.73;;;6.20;99.90;;;;;;5068676;28;20201;-75
2021/11/22 10:30:27;;;;;;;24.42;10.63;;;6.20;99.90;;;;;;5055363;28;20181;-76
2021/11/22 10:32:58;;;;;;;24.52;11.07;;;6.10;99.90;;;;;;5049800;28;20221;-77
2021/11/22 10:35:26;;;;;;;20.23;11.07;;;6.00;99.90;;;;;;5066412;28;20173;-77
2021/11/22 10:38:00;;;;;;;22.65;11.57;;;6.10;99.90;;;;;;5068314;28;20161;-75
2021/11/22 10:40:28;;;;;;;24.52;11.73;;;6.20;99.90;;;;;;5068590;28;20645;-76
2021/11/22 10:42:56;;;;;;;19.20;10.07;;;6.10;99.90;;;;;;5051210;28;20169;-75
2021/11/22 10:45:27;;;;;;;21.33;10.00;;;6.00;99.90;;;;;;5048406;28;20166;-75
2021/11/22 10:48:13;;;;;;;22.75;11.20;;;6.00;99.90;;;;;;5049465;28;20217;-75
2021/11/22 10:50:48;;;;;;;20.45;10.05;;;6.10;99.90;;;;;;5049518;28;20181;-77
2021/11/22 10:53:15;;;;;;;23.83;11.30;;;6.10;99.90;;;;;;5047532;28;20222;-76
2021/11/22 10:55:47;;;;;;;21.00;9.68;;;6.20;99.90;;;;;;5062974;28;20169;-77
2021/11/22 10:58:32;;;;;;;20.52;11.45;;;6.10;99.90;;;;;;5067772;28;20219;-76
2021/11/22 11:00:58;;;;;;;20.35;10.23;;;6.00;99.90;;;;;;5067861;28;20257;-77
2021/11/22 11:03:28;;;;;;;24.27;10.70;;;6.00;99.90;;;;;;5067879;28;20175;-78
2021/11/22 11:05:59;;;;;;;19.40;9.93;;;6.00;99.90;;;;;;5068041;28;20204;-75
2021/11/22 11:08:29;;;;;;;24.90;11.13;;;6.00;99.90;;;;;;5068248;28;20744;-77
2021/11/22 11:11:27;;;;;;;21.35;10.10;;;5.90;99.90;;;;;;5068309;28;20220;-79
2021/11/22 11:13:53;;;;;;;20.80;10.40;;;5.90;99.90;;;;;;5050713;28;20184;-78
2021/11/22 11:16:20;;;;;;;20.48;9.38;;;5.90;99.90;;;;;;5050166;28;20203;-78
2021/11/22 11:18:57;;;;;;;20.00;11.55;;;5.90;99.90;;;;;;5067506;28;20187;-79
2021/11/22 11:21:29;;;;;;;21.08;11.20;;;5.90;99.90;;;;;;5066171;28;20187;-78
2021/11/22 11:23:56;;;;;;;23.33;10.18;;;5.90;99.90;;;;;;5066777;28;20188;-78
2021/11/22 11:26:26;;;;;;;21.58;11.38;;;6.00;99.90;;;;;;5064862;28;20287;-78
2021/11/22 11:28:54;;;;;;;22.10;11.82;;;6.00;99.90;;;;;;5050209;28;20207;-77
2021/11/22 11:31:21;;;;;;;20.25;11.75;;;6.00;99.90;;;;;;5050345;28;20172;-77
2021/11/22 11:33:47;;;;;;;18.70;10.07;;;6.00;99.90;;;;;;5067026;28;20160;-79
2021/11/22 11:36:33;;;;;;;19.45;10.27;;;5.80;99.90;;;;;;5058745;28;20288;-77
2021/11/22 11:39:30;;;;;;;19.92;9.75;;;5.70;99.90;;;;;;5060421;28;20275;-77
2021/11/22 11:42:35;;;;;;;21.90;11.48;;;5.80;99.90;;;;;;5056771;28;20201;-78
2021/11/22 11:45:12;;;;;;;23.75;10.65;;;5.80;99.90;;;;;;5045077;28;20185;-77
2021/11/22 11:47:53;;;;;;;22.30;10.52;;;5.80;99.90;;;;;;5045998;28;20196;-77
2021/11/22 11:50:33;;;;;;;24.08;11.10;;;5.90;99.90;;;;;;5047732;28;20240;-79
2021/11/22 11:53:08;;;;;;;19.58;9.75;;;6.00;99.90;;;;;;5048279;28;20193;-77
2021/11/22 11:55:36;;;;;;;26.75;9.80;;;5.90;99.90;;;;;;5067893;28;20164;-78
2021/11/22 11:58:26;;;;;;;22.10;10.30;;;6.00;99.90;;;;;;5048612;28;20220;-77
2021/11/22 12:00:54;;;;;;;25.00;11.13;;;6.00;99.90;;;;;;5048516;28;20169;-78
2021/11/22 12:03:21;;;;;;;22.67;11.27;;;6.00;99.90;;;;;;5048392;28;20248;-77
2021/11/22 12:05:49;;;;;;;23.05;9.63;;;6.00;99.90;;;;;;5048603;28;20614;-78
2021/11/22 12:08:22;;;;;;;17.45;9.48;;;6.00;99.90;;;;;;5047870;28;20235;-76
2021/11/22 12:10:49;;;;;;;18.95;11.00;;;6.10;99.90;;;;;;5052529;28;20184;-77
2021/11/22 12:13:15;;;;;;;23.45;11.23;;;6.10;99.90;;;;;;5048754;28;20196;-77
2021/11/22 12:15:47;;;;;;;25.38;10.20;;;6.10;99.90;;;;;;5055688;28;20676;-77
2021/11/22 12:18:31;;;;;;;26.55;10.45;;;6.10;99.90;;;;;;5068210;28;20157;-78
2021/11/22 12:21:26;;;;;;;17.85;9.60;;;6.10;99.90;;;;;;5057586;28;20248;-77
2021/11/22 12:23:55;;;;;;;18.25;10.13;;;6.20;99.90;;;;;;5046417;28;20196;-77
2021/11/22 12:26:38;;;;;;;20.85;10.23;;;6.20;99.90;;;;;;5046438;28;20716;-77
2021/11/22 12:29:07;;;;;;;20.70;9.68;;;6.20;99.90;;;;;;5029700;28;20213;-77
2021/11/22 12:31:49;;;;;;;18.48;10.00;;;6.20;99.90;;;;;;5044729;28;20158;-77
2021/11/22 12:34:15;;;;;;;23.20;10.15;;;6.20;99.90;;;;;;5046624;28;20177;-77
2021/11/22 12:36:45;;;;;;;23.08;10.63;;;6.20;99.90;;;;;;5029970;28;20236;-78
2021/11/22 12:39:15;;;;;;;18.42;9.02;;;6.10;99.90;;;;;;5046433;28;20166;-77
2021/11/22 12:41:41;;;;;;;21.92;11.02;;;6.10;99.90;;;;;;5046540;28;20181;-77
2021/11/22 12:44:11;;;;;;;18.63;9.85;;;6.10;99.90;;;;;;5029676;28;20243;-77
2021/11/22 12:46:47;;;;;;;24.90;9.77;;;6.20;99.90;;;;;;5046370;28;20188;-77
2021/11/22 12:49:28;;;;;;;21.10;10.25;;;6.30;99.90;;;;;;5046272;28;20200;-76